createdAt,value
2016-06-29T00:00:09.196Z,329462.6
2016-06-29T00:00:19.231Z,314569.3
2016-06-29T00:00:29.186Z,314569.3
2016-06-29T00:00:39.187Z,314569.3
2016-06-29T00:00:49.191Z,301034.3
2016-06-29T00:00:59.187Z,314569.3
2016-06-29T00:01:09.468Z,314569.3
2016-06-29T00:01:19.258Z,130750.3
2016-06-29T00:01:29.213Z,301034.3
2016-06-29T00:01:39.227Z,288469.5
2016-06-29T00:01:49.271Z,288469.5
2016-06-29T00:01:59.293Z,130750.3
2016-06-29T00:02:09.252Z,329462.6
2016-06-29T00:02:18.067Z,345908.9
2016-06-29T00:02:29.299Z,363715.5
2016-06-29T00:02:38.074Z,345908.9
2016-06-29T00:02:49.268Z,329462.6
2016-06-29T00:02:59.283Z,329462.6
2016-06-29T00:03:08.127Z,301034.3
2016-06-29T00:03:19.378Z,301034.3
2016-06-29T00:03:29.312Z,301034.3
2016-06-29T00:03:39.338Z,130750.3
2016-06-29T00:03:49.324Z,363715.5
2016-06-29T00:03:59.329Z,363715.5
2016-06-29T00:04:08.150Z,345908.9
2016-06-29T00:04:19.377Z,314569.3
2016-06-29T00:04:28.156Z,314569.3
2016-06-29T00:04:39.363Z,314569.3
2016-06-29T00:04:48.172Z,329462.6
2016-06-29T00:04:59.382Z,329462.6
2016-06-29T00:05:09.372Z,329462.6
2016-06-29T00:05:19.372Z,345908.9
2016-06-29T00:05:28.182Z,329462.6
2016-06-29T00:05:39.386Z,301034.3
2016-06-29T00:05:49.397Z,130750.3
2016-06-29T00:05:59.412Z,288469.5
2016-06-29T00:06:09.407Z,276874.8
2016-06-29T00:06:19.420Z,301034.3
2016-06-29T00:06:29.427Z,314569.3
2016-06-29T00:06:39.422Z,329462.6
2016-06-29T00:06:49.445Z,329462.6
2016-06-29T00:06:59.440Z,329462.6
2016-06-29T00:07:08.266Z,136133
2016-06-29T00:07:19.452Z,329462.6
2016-06-29T00:07:27.082Z,314569.3
2016-06-29T00:07:39.460Z,314569.3
2016-06-29T00:07:49.502Z,345908.9
2016-06-29T00:07:59.476Z,363715.5
2016-06-29T00:08:09.491Z,363715.5
2016-06-29T00:08:19.507Z,363715.5
2016-06-29T00:08:28.352Z,136517.5
2016-06-29T00:08:40.948Z,345908.9
2016-06-29T00:08:50.968Z,345908.9
2016-06-29T00:09:00.974Z,329462.6
2016-06-29T00:09:08.327Z,314569.3
2016-06-29T00:09:19.737Z,329462.6
2016-06-29T00:09:29.546Z,363715.5
2016-06-29T00:09:39.621Z,363715.5
2016-06-29T00:09:50.999Z,383658.4
2016-06-29T00:09:59.578Z,383658.4
2016-06-29T00:10:08.421Z,405739.5
2016-06-29T00:10:19.594Z,383658.4
2016-06-29T00:10:29.610Z,383658.4
2016-06-29T00:10:38.373Z,136517.5
2016-06-29T00:10:49.594Z,383658.4
2016-06-29T00:10:59.674Z,363715.5
2016-06-29T00:11:09.621Z,345908.9
2016-06-29T00:11:21.092Z,363715.5
2016-06-29T00:11:29.633Z,405739.5
2016-06-29T00:11:41.062Z,405739.5
2016-06-29T00:11:49.642Z,430348.7
2016-06-29T00:11:59.652Z,383658.4
2016-06-29T00:12:09.676Z,363715.5
2016-06-29T00:12:19.657Z,345908.9
2016-06-29T00:12:29.663Z,345908.9
2016-06-29T00:12:39.656Z,329462.6
2016-06-29T00:12:48.455Z,345908.9
2016-06-29T00:12:59.679Z,383658.4
2016-06-29T00:13:09.690Z,430348.7
2016-06-29T00:13:19.682Z,145363.9
2016-06-29T00:13:29.714Z,458263.6
2016-06-29T00:13:38.490Z,489682.1
2016-06-29T00:13:49.691Z,489682.1
2016-06-29T00:14:01.152Z,489682.1
2016-06-29T00:14:09.761Z,458263.6
2016-06-29T00:14:19.713Z,430348.7
2016-06-29T00:14:29.750Z,405739.5
2016-06-29T00:14:41.181Z,430348.7
2016-06-29T00:14:49.772Z,430348.7
2016-06-29T00:14:58.637Z,430348.7
2016-06-29T00:15:09.801Z,430348.7
2016-06-29T00:15:19.769Z,458263.6
2016-06-29T00:15:29.853Z,458263.6
2016-06-29T00:15:39.805Z,458263.6
2016-06-29T00:15:49.781Z,458263.6
2016-06-29T00:15:59.789Z,489682.1
2016-06-29T00:16:09.867Z,489682.1
2016-06-29T00:16:19.823Z,489682.1
2016-06-29T00:16:30.061Z,458263.6
2016-06-29T00:16:39.813Z,458263.6
2016-06-29T00:16:49.848Z,458263.6
2016-06-29T00:16:59.851Z,458263.6
2016-06-29T00:17:09.839Z,430348.7
2016-06-29T00:17:18.645Z,430348.7
2016-06-29T00:17:29.871Z,405739.5
2016-06-29T00:17:39.849Z,405739.5
2016-06-29T00:17:47.475Z,148249.4
2016-06-29T00:17:59.879Z,458263.6
2016-06-29T00:18:09.879Z,489682.1
2016-06-29T00:18:21.310Z,489682.1
2016-06-29T00:18:29.925Z,458263.6
2016-06-29T00:18:41.340Z,458263.6
2016-06-29T00:18:49.899Z,458263.6
2016-06-29T00:18:58.705Z,430348.7
2016-06-29T00:19:09.927Z,430348.7
2016-06-29T00:19:21.387Z,430348.7
2016-06-29T00:19:29.932Z,405739.5
2016-06-29T00:19:39.934Z,144979.3
2016-06-29T00:19:49.958Z,430348.7
2016-06-29T00:19:59.966Z,458263.6
2016-06-29T00:20:09.950Z,458263.6
2016-06-29T00:20:19.995Z,430348.7
2016-06-29T00:20:30.008Z,430348.7
2016-06-29T00:20:39.969Z,430348.7
2016-06-29T00:20:48.781Z,405739.5
2016-06-29T00:20:59.989Z,405739.5
2016-06-29T00:21:09.985Z,430348.7
2016-06-29T00:21:18.795Z,458263.6
2016-06-29T00:21:28.808Z,489682.1
2016-06-29T00:21:40.030Z,154983.8
2016-06-29T00:21:50.038Z,148634.2
2016-06-29T00:21:58.826Z,458263.6
2016-06-29T00:22:10.039Z,489682.1
2016-06-29T00:22:20.059Z,489682.1
2016-06-29T00:22:28.844Z,489682.1
2016-06-29T00:22:40.060Z,458263.6
2016-06-29T00:22:50.072Z,430348.7
2016-06-29T00:22:58.846Z,430348.7
2016-06-29T00:23:08.858Z,405739.5
2016-06-29T00:23:20.072Z,430348.7
2016-06-29T00:23:30.095Z,458263.6
2016-06-29T00:23:40.299Z,525772.3
2016-06-29T00:23:50.091Z,525772.3
2016-06-29T00:24:00.131Z,525772.3
2016-06-29T00:24:10.129Z,162297.7
2016-06-29T00:24:21.625Z,525772.3
2016-06-29T00:24:30.166Z,158640.5
2016-06-29T00:24:40.135Z,525772.3
2016-06-29T00:24:50.112Z,525772.3
2016-06-29T00:25:00.191Z,525772.3
2016-06-29T00:25:10.142Z,525772.3
2016-06-29T00:25:20.165Z,565568.9
2016-06-29T00:25:30.162Z,524219.6
2016-06-29T00:25:40.175Z,489682.1
2016-06-29T00:25:47.774Z,458263.6
2016-06-29T00:25:58.987Z,458263.6
2016-06-29T00:26:10.186Z,430348.7
2016-06-29T00:26:20.243Z,456906.3
2016-06-29T00:26:29.020Z,430348.7
2016-06-29T00:26:40.198Z,405739.5
2016-06-29T00:26:49.014Z,405739.5
2016-06-29T00:26:57.804Z,405739.5
2016-06-29T00:27:09.028Z,383658.4
2016-06-29T00:27:20.218Z,383658.4
2016-06-29T00:27:30.237Z,363715.5
2016-06-29T00:27:40.351Z,363715.5
2016-06-29T00:27:50.256Z,363715.5
2016-06-29T00:28:00.274Z,383658.4
2016-06-29T00:28:10.265Z,383658.4
2016-06-29T00:28:19.086Z,383658.4
2016-06-29T00:28:30.299Z,383658.4
2016-06-29T00:28:40.293Z,383658.4
2016-06-29T00:28:50.295Z,363715.5
2016-06-29T00:28:59.151Z,429185.6
2016-06-29T00:29:10.322Z,405739.5
2016-06-29T00:29:20.298Z,430348.7
2016-06-29T00:29:29.114Z,405739.5
2016-06-29T00:29:39.137Z,405739.5
2016-06-29T00:29:49.122Z,405739.5
2016-06-29T00:30:00.349Z,383658.4
2016-06-29T00:30:10.607Z,383658.4
2016-06-29T00:30:20.342Z,363715.5
2016-06-29T00:30:29.154Z,363715.5
2016-06-29T00:30:40.369Z,363715.5
2016-06-29T00:30:50.372Z,345908.9
2016-06-29T00:31:00.393Z,363715.5
2016-06-29T00:31:10.478Z,363715.5
2016-06-29T00:31:20.388Z,363715.5
2016-06-29T00:31:30.398Z,345908.9
2016-06-29T00:31:40.402Z,329462.6
2016-06-29T00:31:50.438Z,345908.9
2016-06-29T00:32:00.414Z,383658.4
2016-06-29T00:32:10.488Z,383658.4
2016-06-29T00:32:20.429Z,405739.5
2016-06-29T00:32:30.482Z,405739.5
2016-06-29T00:32:40.430Z,405739.5
2016-06-29T00:32:50.519Z,405739.5
2016-06-29T00:33:00.510Z,405739.5
2016-06-29T00:33:10.506Z,458263.6
2016-06-29T00:33:20.584Z,458263.6
2016-06-29T00:33:30.559Z,458263.6
2016-06-29T00:33:40.502Z,430348.7
2016-06-29T00:33:50.727Z,458263.6
2016-06-29T00:34:00.482Z,489682.1
2016-06-29T00:34:10.571Z,489682.1
2016-06-29T00:34:20.574Z,525772.3
2016-06-29T00:34:30.534Z,567316.4
2016-06-29T00:34:40.527Z,615876.8
2016-06-29T00:34:50.588Z,615876.8
2016-06-29T00:35:00.518Z,615876.8
2016-06-29T00:35:09.331Z,615876.8
2016-06-29T00:35:20.543Z,671267.3
2016-06-29T00:35:29.411Z,671267.3
2016-06-29T00:35:40.551Z,671267.3
2016-06-29T00:35:50.608Z,671267.3
2016-06-29T00:36:00.568Z,613933.8
2016-06-29T00:36:10.603Z,525772.3
2016-06-29T00:36:20.584Z,489682.1
2016-06-29T00:36:30.617Z,489682.1
2016-06-29T00:36:40.591Z,525772.3
2016-06-29T00:36:50.616Z,671267.3
2016-06-29T00:37:00.858Z,567316.4
2016-06-29T00:37:10.623Z,567316.4
2016-06-29T00:37:20.642Z,567316.4
2016-06-29T00:37:30.863Z,671267.3
2016-06-29T00:37:40.684Z,615876.8
2016-06-29T00:37:50.686Z,739918.1
2016-06-29T00:38:00.661Z,567316.4
2016-06-29T00:38:10.655Z,567316.4
2016-06-29T00:38:19.471Z,671267.3
2016-06-29T00:38:30.663Z,671267.3
2016-06-29T00:38:40.682Z,671267.3
2016-06-29T00:38:48.278Z,567316.4
2016-06-29T00:39:00.682Z,615876.8
2016-06-29T00:39:10.688Z,739918.1
2016-06-29T00:39:19.508Z,615876.8
2016-06-29T00:39:30.696Z,615876.8
2016-06-29T00:39:40.730Z,615876.8
2016-06-29T00:39:50.719Z,567316.4
2016-06-29T00:39:58.340Z,615876.8
2016-06-29T00:40:10.733Z,567316.4
2016-06-29T00:40:20.743Z,613933.8
2016-06-29T00:40:29.561Z,525772.3
2016-06-29T00:40:40.760Z,567316.4
2016-06-29T00:40:50.779Z,567316.4
2016-06-29T00:41:00.800Z,567316.4
2016-06-29T00:41:10.760Z,567316.4
2016-06-29T00:41:20.813Z,567316.4
2016-06-29T00:41:29.592Z,525772.3
2016-06-29T00:41:39.708Z,525772.3
2016-06-29T00:41:50.817Z,525772.3
2016-06-29T00:42:00.823Z,525772.3
2016-06-29T00:42:10.813Z,567316.4
2016-06-29T00:42:20.835Z,567316.4
2016-06-29T00:42:30.817Z,567316.4
2016-06-29T00:42:40.839Z,525772.3
2016-06-29T00:42:50.842Z,525772.3
2016-06-29T00:42:59.647Z,489682.1
2016-06-29T00:43:10.864Z,489682.1
2016-06-29T00:43:22.299Z,489682.1
2016-06-29T00:43:30.976Z,525772.3
2016-06-29T00:43:42.314Z,525772.3
2016-06-29T00:43:52.312Z,525772.3
2016-06-29T00:44:00.918Z,489682.1
2016-06-29T00:44:09.681Z,489682.1
2016-06-29T00:44:20.897Z,458263.6
2016-06-29T00:44:30.884Z,430348.7
2016-06-29T00:44:40.904Z,430348.7
2016-06-29T00:44:50.971Z,458263.6
2016-06-29T00:45:00.932Z,430348.7
2016-06-29T00:45:09.717Z,458263.6
2016-06-29T00:45:21.131Z,430348.7
2016-06-29T00:45:31.013Z,458263.6
2016-06-29T00:45:39.737Z,430348.7
2016-06-29T00:45:50.937Z,430348.7
2016-06-29T00:45:59.764Z,405739.5
2016-06-29T00:46:10.994Z,405739.5
2016-06-29T00:46:20.966Z,405739.5
2016-06-29T00:46:30.966Z,456906.3
2016-06-29T00:46:40.986Z,405739.5
2016-06-29T00:46:49.784Z,456906.3
2016-06-29T00:47:00.995Z,405739.5
2016-06-29T00:47:11.009Z,456906.3
2016-06-29T00:47:19.820Z,456906.3
2016-06-29T00:47:31.050Z,429185.6
2016-06-29T00:47:41.010Z,144979.3
2016-06-29T00:47:52.545Z,429185.6
2016-06-29T00:48:02.506Z,404577.1
2016-06-29T00:48:09.887Z,363715.5
2016-06-29T00:48:19.865Z,404577.1
2016-06-29T00:48:29.866Z,141901.9
2016-06-29T00:48:41.056Z,429185.6
2016-06-29T00:48:51.058Z,404577.1
2016-06-29T00:49:02.511Z,404577.1
2016-06-29T00:49:09.871Z,363715.5
2016-06-29T00:49:22.540Z,345908.9
2016-06-29T00:49:32.613Z,362747.6
2016-06-29T00:49:41.108Z,345908.9
2016-06-29T00:49:52.546Z,382496.6
2016-06-29T00:50:01.319Z,383658.4
2016-06-29T00:50:11.103Z,456906.3
2016-06-29T00:50:21.111Z,456906.3
2016-06-29T00:50:31.139Z,429185.6
2016-06-29T00:50:41.142Z,429185.6
2016-06-29T00:50:51.142Z,404577.1
2016-06-29T00:51:01.167Z,383658.4
2016-06-29T00:51:11.150Z,383658.4
2016-06-29T00:51:21.386Z,405739.5
2016-06-29T00:51:31.199Z,430348.7
2016-06-29T00:51:41.187Z,456906.3
2016-06-29T00:51:51.189Z,456906.3
2016-06-29T00:52:01.228Z,456906.3
2016-06-29T00:52:11.225Z,429185.6
2016-06-29T00:52:21.211Z,404577.1
2016-06-29T00:52:31.196Z,363715.5
2016-06-29T00:52:40.243Z,382496.6
2016-06-29T00:52:50.015Z,345908.9
2016-06-29T00:53:00.042Z,382496.6
2016-06-29T00:53:11.257Z,345908.9
2016-06-29T00:53:21.273Z,382496.6
2016-06-29T00:53:30.078Z,345908.9
2016-06-29T00:53:41.267Z,329462.6
2016-06-29T00:53:51.245Z,329462.6
2016-06-29T00:54:00.101Z,329462.6
2016-06-29T00:54:11.261Z,314569.3
2016-06-29T00:54:20.088Z,314569.3
2016-06-29T00:54:31.281Z,314569.3
2016-06-29T00:54:41.307Z,301034.3
2016-06-29T00:54:51.350Z,301034.3
2016-06-29T00:55:01.307Z,301034.3
2016-06-29T00:55:11.310Z,313602.3
2016-06-29T00:55:21.338Z,128251.7
2016-06-29T00:55:31.328Z,276874.8
2016-06-29T00:55:41.353Z,276874.8
2016-06-29T00:55:51.326Z,276874.8
2016-06-29T00:56:01.348Z,301034.3
2016-06-29T00:56:10.173Z,314569.3
2016-06-29T00:56:21.356Z,329462.6
2016-06-29T00:56:31.365Z,314569.3
2016-06-29T00:56:41.395Z,136133
2016-06-29T00:56:51.362Z,345908.9
2016-06-29T00:57:01.391Z,329462.6
2016-06-29T00:57:10.198Z,329462.6
2016-06-29T00:57:21.394Z,329462.6
2016-06-29T00:57:31.390Z,329462.6
2016-06-29T00:57:40.190Z,345908.9
2016-06-29T00:57:51.633Z,329462.6
2016-06-29T00:58:01.423Z,345908.9
2016-06-29T00:58:11.798Z,363715.5
2016-06-29T00:58:21.458Z,383658.4
2016-06-29T00:58:31.441Z,383658.4
2016-06-29T00:58:41.445Z,383658.4
2016-06-29T00:58:50.275Z,383658.4
2016-06-29T00:59:00.266Z,363715.5
2016-06-29T00:59:11.458Z,383658.4
2016-06-29T00:59:21.480Z,363715.5
2016-06-29T00:59:30.307Z,383658.4
2016-06-29T00:59:41.506Z,383658.4
2016-06-29T00:59:51.592Z,383658.4
2016-06-29T01:00:01.505Z,148249.4
2016-06-29T01:00:11.510Z,148249.4
2016-06-29T01:00:21.783Z,456906.3
2016-06-29T01:00:31.590Z,456906.3
2016-06-29T01:00:40.387Z,429185.6
2016-06-29T01:00:51.542Z,144979.3
2016-06-29T01:01:00.455Z,429185.6
2016-06-29T01:01:13.012Z,363715.5
2016-06-29T01:01:21.568Z,363715.5
2016-06-29T01:01:31.559Z,382496.6
2016-06-29T01:01:41.560Z,382496.6
2016-06-29T01:01:51.627Z,329462.6
2016-06-29T01:02:00.430Z,404577.1
2016-06-29T01:02:11.596Z,405739.5
2016-06-29T01:02:21.601Z,405739.5
2016-06-29T01:02:31.605Z,456906.3
2016-06-29T01:02:40.633Z,456906.3
2016-06-29T01:02:51.616Z,429185.6
2016-06-29T01:03:01.613Z,404577.1
2016-06-29T01:03:11.643Z,363715.5
2016-06-29T01:03:21.623Z,382496.6
2016-06-29T01:03:31.640Z,363715.5
2016-06-29T01:03:41.664Z,363715.5
2016-06-29T01:03:51.642Z,404577.1
2016-06-29T01:04:00.474Z,404577.1
2016-06-29T01:04:11.661Z,404577.1
2016-06-29T01:04:23.117Z,345908.9
2016-06-29T01:04:33.119Z,329462.6
2016-06-29T01:04:41.673Z,362747.6
2016-06-29T01:04:50.528Z,329462.6
2016-06-29T01:05:01.889Z,329462.6
2016-06-29T01:05:11.720Z,345908.9
2016-06-29T01:05:21.724Z,345908.9
2016-06-29T01:05:33.173Z,363715.5
2016-06-29T01:05:41.942Z,141901.9
2016-06-29T01:05:53.174Z,383658.4
2016-06-29T01:06:01.780Z,383658.4
2016-06-29T01:06:11.718Z,144979.3
2016-06-29T01:06:21.727Z,383658.4
2016-06-29T01:06:31.746Z,429185.6
2016-06-29T01:06:41.764Z,404577.1
2016-06-29T01:06:51.772Z,363715.5
2016-06-29T01:07:00.558Z,139017.2
2016-06-29T01:07:11.795Z,362747.6
2016-06-29T01:07:21.789Z,329462.6
2016-06-29T01:07:31.796Z,314569.3
2016-06-29T01:07:41.798Z,362747.6
2016-06-29T01:07:51.789Z,329462.6
2016-06-29T01:08:01.799Z,329462.6
2016-06-29T01:08:13.266Z,362747.6
2016-06-29T01:08:21.859Z,362747.6
2016-06-29T01:08:31.835Z,329462.6
2016-06-29T01:08:41.831Z,314569.3
2016-06-29T01:08:50.690Z,314569.3
2016-06-29T01:09:01.872Z,344747.8
2016-06-29T01:09:10.670Z,133249.3
2016-06-29T01:09:21.901Z,301034.3
2016-06-29T01:09:30.703Z,328495.5
2016-06-29T01:09:41.893Z,328495.5
2016-06-29T01:09:50.697Z,301034.3
2016-06-29T01:10:01.907Z,301034.3
2016-06-29T01:10:11.885Z,301034.3
2016-06-29T01:10:21.896Z,301034.3
2016-06-29T01:10:31.910Z,301034.3
2016-06-29T01:10:41.907Z,288469.5
2016-06-29T01:10:51.910Z,301034.3
2016-06-29T01:11:03.355Z,288469.5
2016-06-29T01:11:10.773Z,301034.3
2016-06-29T01:11:21.964Z,301034.3
2016-06-29T01:11:31.946Z,314569.3
2016-06-29T01:11:41.935Z,314569.3
2016-06-29T01:11:51.947Z,329462.6
2016-06-29T01:12:02.004Z,382496.6
2016-06-29T01:12:10.790Z,345908.9
2016-06-29T01:12:20.779Z,362747.6
2016-06-29T01:12:31.982Z,362747.6
2016-06-29T01:12:41.990Z,345908.9
2016-06-29T01:12:52.228Z,345908.9
2016-06-29T01:13:00.836Z,345908.9
2016-06-29T01:13:12.004Z,363715.5
2016-06-29T01:13:22.026Z,363715.5
2016-06-29T01:13:32.235Z,404577.1
2016-06-29T01:13:42.054Z,363715.5
2016-06-29T01:13:52.040Z,429185.6
2016-06-29T01:14:02.025Z,429185.6
2016-06-29T01:14:12.117Z,429185.6
2016-06-29T01:14:20.910Z,429185.6
2016-06-29T01:14:32.063Z,429185.6
2016-06-29T01:14:42.065Z,404577.1
2016-06-29T01:14:50.979Z,404577.1
2016-06-29T01:15:00.942Z,404577.1
2016-06-29T01:15:12.094Z,404577.1
2016-06-29T01:15:20.897Z,404577.1
2016-06-29T01:15:32.314Z,404577.1
2016-06-29T01:15:42.100Z,429185.6
2016-06-29T01:15:52.142Z,456906.3
2016-06-29T01:16:02.369Z,524219.6
2016-06-29T01:16:10.952Z,524219.6
2016-06-29T01:16:22.123Z,488130.2
2016-06-29T01:16:32.170Z,524219.6
2016-06-29T01:16:42.133Z,488130.2
2016-06-29T01:16:52.173Z,488130.2
2016-06-29T01:17:02.154Z,488130.2
2016-06-29T01:17:12.217Z,456906.3
2016-06-29T01:17:22.157Z,456906.3
2016-06-29T01:17:32.167Z,404577.1
2016-06-29T01:17:42.182Z,382496.6
2016-06-29T01:17:52.271Z,344747.8
2016-06-29T01:18:02.194Z,328495.5
2016-06-29T01:18:12.207Z,313602.3
2016-06-29T01:18:22.210Z,287503.2
2016-06-29T01:18:32.453Z,287503.2
2016-06-29T01:18:42.223Z,287503.2
2016-06-29T01:18:52.220Z,287503.2
2016-06-29T01:19:02.237Z,275908.7
2016-06-29T01:19:12.267Z,255433.6
2016-06-29T01:19:21.040Z,246165.6
2016-06-29T01:19:32.257Z,237479
2016-06-29T01:19:42.271Z,221848.6
2016-06-29T01:19:52.317Z,214711.4
2016-06-29T01:20:02.267Z,208154.3
2016-06-29T01:20:12.282Z,201791.5
2016-06-29T01:20:22.298Z,195815.5
2016-06-29T01:20:32.313Z,190226.3
2016-06-29T01:20:41.104Z,190226.3
2016-06-29T01:20:51.158Z,221848.6
2016-06-29T01:21:02.334Z,275908.7
2016-06-29T01:21:12.312Z,300067.5
2016-06-29T01:21:21.126Z,313602.3
2016-06-29T01:21:32.342Z,328495.5
2016-06-29T01:21:42.358Z,328495.5
2016-06-29T01:21:52.360Z,344747.8
2016-06-29T01:22:02.417Z,344747.8
2016-06-29T01:22:12.362Z,328495.5
2016-06-29T01:22:19.960Z,328495.5
2016-06-29T01:22:32.361Z,344747.8
2016-06-29T01:22:42.395Z,362747.6
2016-06-29T01:22:52.377Z,429185.6
2016-06-29T01:23:01.173Z,456906.3
2016-06-29T01:23:12.383Z,488130.2
2016-06-29T01:23:22.443Z,456906.3
2016-06-29T01:23:32.399Z,429185.6
2016-06-29T01:23:41.221Z,382496.6
2016-06-29T01:23:52.422Z,344747.8
2016-06-29T01:24:02.452Z,313602.3
2016-06-29T01:24:12.434Z,300067.5
2016-06-29T01:24:21.225Z,275908.7
2016-06-29T01:24:32.458Z,265283.4
2016-06-29T01:24:42.454Z,255433.6
2016-06-29T01:24:52.478Z,246165.6
2016-06-29T01:25:02.481Z,246165.6
2016-06-29T01:25:12.450Z,246165.6
2016-06-29T01:25:21.303Z,246165.6
2016-06-29T01:25:31.288Z,255433.6
2016-06-29T01:25:42.482Z,265283.4
2016-06-29T01:25:52.501Z,265283.4
2016-06-29T01:26:02.506Z,275908.7
2016-06-29T01:26:12.502Z,275908.7
2016-06-29T01:26:22.493Z,287503.2
2016-06-29T01:26:32.507Z,275908.7
2016-06-29T01:26:42.543Z,275908.7
2016-06-29T01:26:52.539Z,265283.4
2016-06-29T01:27:02.549Z,265283.4
2016-06-29T01:27:12.542Z,255433.6
2016-06-29T01:27:21.356Z,246165.6
2016-06-29T01:27:32.550Z,229373.5
2016-06-29T01:27:42.556Z,214711.4
2016-06-29T01:27:52.794Z,208154.3
2016-06-29T01:28:02.594Z,208154.3
2016-06-29T01:28:12.585Z,201791.5
2016-06-29T01:28:21.368Z,201791.5
2016-06-29T01:28:32.631Z,208154.3
2016-06-29T01:28:42.899Z,214711.4
2016-06-29T01:28:52.637Z,208154.3
2016-06-29T01:29:02.607Z,208154.3
2016-06-29T01:29:11.397Z,208154.3
2016-06-29T01:29:22.659Z,208154.3
2016-06-29T01:29:32.620Z,214711.4
2016-06-29T01:29:42.665Z,221848.6
2016-06-29T01:29:52.786Z,221848.6
2016-06-29T01:30:01.467Z,214711.4
2016-06-29T01:30:11.483Z,208154.3
2016-06-29T01:30:22.686Z,201791.5
2016-06-29T01:30:32.732Z,195815.5
2016-06-29T01:30:42.675Z,190226.3
2016-06-29T01:30:52.725Z,190226.3
2016-06-29T01:31:01.477Z,190226.3
2016-06-29T01:31:12.686Z,195815.5
2016-06-29T01:31:22.691Z,208154.3
2016-06-29T01:31:34.512Z,221848.6
2016-06-29T01:31:44.162Z,237479
2016-06-29T01:31:52.732Z,255433.6
2016-06-29T01:32:02.774Z,275908.7
2016-06-29T01:32:11.559Z,287503.2
2016-06-29T01:32:23.018Z,300067.5
2016-06-29T01:32:34.194Z,313602.3
2016-06-29T01:32:42.727Z,313602.3
2016-06-29T01:32:52.799Z,300067.5
2016-06-29T01:33:01.559Z,313602.3
2016-06-29T01:33:14.242Z,313602.3
2016-06-29T01:33:22.766Z,328495.5
2016-06-29T01:33:32.790Z,344747.8
2016-06-29T01:33:42.826Z,344747.8
2016-06-29T01:33:51.588Z,344747.8
2016-06-29T01:34:02.782Z,344747.8
2016-06-29T01:34:11.602Z,362747.6
2016-06-29T01:34:22.814Z,362747.6
2016-06-29T01:34:32.860Z,344747.8
2016-06-29T01:34:42.849Z,138440.3
2016-06-29T01:34:52.885Z,344747.8
2016-06-29T01:35:02.826Z,138440.3
2016-06-29T01:35:11.637Z,344747.8
2016-06-29T01:35:22.841Z,138440.3
2016-06-29T01:35:32.923Z,328495.5
2016-06-29T01:35:42.882Z,344747.8
2016-06-29T01:35:52.884Z,328495.5
2016-06-29T01:36:02.857Z,328495.5
2016-06-29T01:36:12.873Z,328495.5
2016-06-29T01:36:22.881Z,328495.5
2016-06-29T01:36:31.705Z,313602.3
2016-06-29T01:36:42.930Z,313602.3
2016-06-29T01:36:52.914Z,130365.9
2016-06-29T01:37:03.004Z,130365.9
2016-06-29T01:37:12.958Z,313602.3
2016-06-29T01:37:21.815Z,313602.3
2016-06-29T01:37:32.931Z,313602.3
2016-06-29T01:37:43.001Z,313602.3
2016-06-29T01:37:52.946Z,313602.3
2016-06-29T01:38:02.968Z,128251.7
2016-06-29T01:38:12.959Z,300067.5
2016-06-29T01:38:22.988Z,300067.5
2016-06-29T01:38:32.975Z,287503.2
2016-06-29T01:38:42.954Z,287503.2
2016-06-29T01:38:52.983Z,287503.2
2016-06-29T01:39:02.997Z,287503.2
2016-06-29T01:39:13.007Z,266056.2
2016-06-29T01:39:23.037Z,266056.2
2016-06-29T01:39:33.007Z,275908.7
2016-06-29T01:39:41.823Z,256206.1
2016-06-29T01:39:53.003Z,256206.1
2016-06-29T01:40:03.022Z,275908.7
2016-06-29T01:40:13.043Z,275908.7
2016-06-29T01:40:23.061Z,275908.7
2016-06-29T01:40:33.060Z,275908.7
2016-06-29T01:40:43.056Z,275908.7
2016-06-29T01:40:51.849Z,265283.4
2016-06-29T01:41:03.062Z,265283.4
2016-06-29T01:41:13.057Z,255433.6
2016-06-29T01:41:23.106Z,255433.6
2016-06-29T01:41:31.899Z,255433.6
2016-06-29T01:41:43.088Z,255433.6
2016-06-29T01:41:53.087Z,246165.6
2016-06-29T01:42:01.918Z,246165.6
2016-06-29T01:42:11.924Z,230145.4
2016-06-29T01:42:23.131Z,246165.6
2016-06-29T01:42:33.121Z,230145.4
2016-06-29T01:42:43.111Z,230145.4
2016-06-29T01:42:53.133Z,222620.4
2016-06-29T01:43:03.160Z,222620.4
2016-06-29T01:43:13.142Z,222620.4
2016-06-29T01:43:23.158Z,222620.4
2016-06-29T01:43:33.175Z,237479
2016-06-29T01:43:41.978Z,230145.4
2016-06-29T01:43:53.167Z,238251.1
2016-06-29T01:44:03.177Z,255433.6
2016-06-29T01:44:13.240Z,246937.7
2016-06-29T01:44:23.194Z,265283.4
2016-06-29T01:44:33.207Z,246937.7
2016-06-29T01:44:43.211Z,246937.7
2016-06-29T01:44:53.246Z,246937.7
2016-06-29T01:45:03.231Z,246937.7
2016-06-29T01:45:12.035Z,238251.1
2016-06-29T01:45:23.231Z,238251.1
2016-06-29T01:45:32.036Z,246937.7
2016-06-29T01:45:43.264Z,238251.1
2016-06-29T01:45:53.255Z,238251.1
2016-06-29T01:46:03.255Z,246937.7
2016-06-29T01:46:13.352Z,238251.1
2016-06-29T01:46:23.270Z,238251.1
2016-06-29T01:46:33.267Z,238251.1
2016-06-29T01:46:43.268Z,238251.1
2016-06-29T01:46:53.277Z,230145.4
2016-06-29T01:47:02.098Z,255433.6
2016-06-29T01:47:13.305Z,238251.1
2016-06-29T01:47:23.307Z,238251.1
2016-06-29T01:47:33.330Z,238251.1
2016-06-29T01:47:43.318Z,238251.1
2016-06-29T01:47:53.318Z,246937.7
2016-06-29T01:48:03.324Z,238251.1
2016-06-29T01:48:13.375Z,238251.1
2016-06-29T01:48:23.334Z,238251.1
2016-06-29T01:48:32.162Z,238251.1
2016-06-29T01:48:43.350Z,265283.4
2016-06-29T01:48:53.386Z,246937.7
2016-06-29T01:49:02.175Z,256206.1
2016-06-29T01:49:13.356Z,256206.1
2016-06-29T01:49:23.381Z,287503.2
2016-06-29T01:49:43.412Z,276874.8
2016-06-29T01:49:53.397Z,276874.8
2016-06-29T01:50:03.449Z,276874.8
2016-06-29T01:50:12.269Z,300067.5
2016-06-29T01:50:23.403Z,125753.4
2016-06-29T01:50:33.446Z,276874.8
2016-06-29T01:50:43.455Z,276874.8
2016-06-29T01:50:53.459Z,276874.8
2016-06-29T01:51:13.477Z,266056.2
2016-06-29T01:51:22.365Z,266056.2
2016-06-29T01:51:32.279Z,276874.8
2016-06-29T01:51:43.488Z,125753.4
2016-06-29T01:51:53.488Z,125753.4
2016-06-29T01:52:03.478Z,288469.5
2016-06-29T01:52:13.507Z,125753.4
2016-06-29T01:52:23.508Z,128251.7
2016-06-29T01:52:33.496Z,288469.5
2016-06-29T01:52:43.512Z,328495.5
2016-06-29T01:52:53.506Z,301034.3
2016-06-29T01:53:02.329Z,301034.3
2016-06-29T01:53:13.536Z,130750.3
2016-06-29T01:53:23.593Z,301034.3
2016-06-29T01:53:33.581Z,128251.7
2016-06-29T01:53:42.362Z,288469.5
2016-06-29T01:53:53.569Z,313602.3
2016-06-29T01:54:03.565Z,300067.5
2016-06-29T01:54:12.368Z,276874.8
2016-06-29T01:54:22.384Z,287503.2
2016-06-29T01:54:32.374Z,266056.2
2016-06-29T01:54:43.578Z,287503.2
2016-06-29T01:54:52.428Z,256206.1
2016-06-29T01:55:03.636Z,266056.2
2016-06-29T01:55:13.622Z,275908.7
2016-06-29T01:55:23.608Z,287503.2
2016-06-29T01:55:31.215Z,275908.7
2016-06-29T01:55:43.630Z,287503.2
2016-06-29T01:55:53.853Z,123255.5
2016-06-29T01:56:03.851Z,266056.2
2016-06-29T01:56:12.495Z,256206.1
2016-06-29T01:56:23.656Z,265283.4
2016-06-29T01:56:32.674Z,246937.7
2016-06-29T01:56:43.658Z,246937.7
2016-06-29T01:56:53.674Z,256206.1
2016-06-29T01:57:03.697Z,256206.1
2016-06-29T01:57:13.712Z,275908.7
2016-06-29T01:57:23.698Z,256206.1
2016-06-29T01:57:32.533Z,125369.2
2016-06-29T01:57:45.165Z,275908.7
2016-06-29T01:57:52.587Z,275908.7